SUSO

Nueva Hesperides International Airport

Salto, Uruguay
TAF SUSO 231730Z 2318/2418 13018KT 9999 SCT020 BKN070 TX25/2418Z TN14/2410Z BECMG 2402/2404 09008KT
Issued Valid From Valid To
Oct-23 @ 17:30 UTC
(12 hours ago)
Oct-23 @ 18:00 UTC
(11 hours ago)
Oct-24 @ 18:00 UTC
(in 13 hours)
Expired Click to View Oct-23 @ 18:00 to Oct-24 @ 02:00
TAF SUSO 231730Z 2318/2418 13018KT 9999 SCT020 BKN070 TX25/2418Z TN14/2410Z
Wind Visibility Clouds
130° at 18 knots 10,000+ meters
  • Scattered at 2,000' AGL
  • Broken at 7,000' AGL
Becoming Oct-24 @ 02:00 to Oct-24 @ 18:00
BECMG 2402/2404 09008KT
Wind Visibility Clouds
90° at 8 knots 10,000+ meters
  • Scattered at 2,000' AGL
  • Broken at 7,000' AGL
TAF SUSO 231730Z 2318/2418 13018KT 9999 SCT020 BKN070 TX25/2418Z TN14/2410Z BECMG 2402/2404 09008KT
Issued Oct-23 @ 17:30 UTC
(12 hours ago)
Valid From Oct-23 @ 18:00 UTC
(11 hours ago)
Valid To Oct-24 @ 18:00 UTC
(in 13 hours)
Oct-23 @ 18:00 - Oct-24 @ 02:00
Wind Visibility
130° at 18 knots 10,000+ meters
Clouds
  • Scattered at 2,000' AGL
  • Broken at 7,000' AGL
Becoming Oct-24 @ 02:00 - Oct-24 @ 18:00
Wind Visibility
90° at 8 knots 10,000+ meters
Clouds
  • Scattered at 2,000' AGL
  • Broken at 7,000' AGL